Time;durP1;ratioP1;P1;durP2;ratioP2;P2;SDS_P1;SDS_P2;PMS_P1;PMS_P2;Temp;Humidity;BMP_temperature;BMP_pressure;BME280_temperature;BME280_humidity;BME280_pressure;Samples;Min_cycle;Max_cycle;Signal;HPM_P1;HPM_P2
2022/09/05 00:00:18;;;;;;;1.83;1.83;;;19.90;85.30;;;;;;4999796;28;20193;-75
2022/09/05 00:03:12;;;;;;;1.83;1.83;;;19.90;85.30;;;;;;4997097;28;20272;-75
2022/09/05 00:06:11;;;;;;;2.08;2.08;;;19.80;85.80;;;;;;4959003;28;20206;-75
2022/09/05 00:08:51;;;;;;;2.28;2.17;;;19.80;86.90;;;;;;4950820;28;20191;-75
2022/09/05 00:11:41;;;;;;;2.15;2.15;;;19.80;85.70;;;;;;4955057;28;20630;-75
2022/09/05 00:14:40;;;;;;;2.45;2.40;;;19.70;86.30;;;;;;4953303;28;20191;-75
2022/09/05 00:17:26;;;;;;;2.90;2.80;;;19.70;85.40;;;;;;4948238;28;20739;-75
2022/09/05 00:19:57;;;;;;;2.42;2.33;;;19.60;85.30;;;;;;4953436;28;20998;-75
2022/09/05 00:22:34;;;;;;;2.50;2.47;;;19.50;85.10;;;;;;4954283;28;20202;-75
2022/09/05 00:25:18;;;;;;;2.80;2.70;;;19.50;86.20;;;;;;4951760;28;20234;-76
2022/09/05 00:27:54;;;;;;;3.10;3.00;;;19.50;86.00;;;;;;4948729;28;20720;-75
2022/09/05 00:30:20;;;;;;;2.92;2.83;;;19.40;86.30;;;;;;4950945;28;20201;-75
2022/09/05 00:33:15;;;;;;;3.78;2.97;;;19.40;87.50;;;;;;4949733;28;20692;-75
2022/09/05 00:35:52;;;;;;;3.33;3.22;;;19.30;86.90;;;;;;4948253;28;20195;-75
2022/09/05 00:38:23;;;;;;;3.13;3.03;;;19.20;86.70;;;;;;4953250;28;20210;-75
2022/09/05 00:41:03;;;;;;;3.53;3.33;;;19.20;87.90;;;;;;4952267;28;20198;-75
2022/09/05 00:43:35;;;;;;;3.75;3.50;;;19.10;87.80;;;;;;4973581;28;20202;-75
2022/09/05 00:46:02;;;;;;;3.95;3.50;;;19.10;87.70;;;;;;5046636;28;21423;-75
2022/09/05 00:48:49;;;;;;;3.72;3.50;;;19.00;87.20;;;;;;5049019;28;20262;-75
2022/09/05 00:51:21;;;;;;;3.40;3.30;;;18.90;87.00;;;;;;5049877;28;20767;-75
2022/09/05 00:54:17;;;;;;;5.65;4.25;;;18.90;87.20;;;;;;5049928;28;20218;-75
2022/09/05 00:57:04;;;;;;;3.83;3.72;;;18.80;87.40;;;;;;5055608;28;20237;-75
2022/09/05 00:59:39;;;;;;;4.07;3.88;;;18.80;87.50;;;;;;5051021;28;20184;-75
2022/09/05 01:02:30;;;;;;;3.05;2.95;;;18.80;88.50;;;;;;5050900;28;20183;-76
2022/09/05 01:05:06;;;;;;;3.65;3.45;;;18.80;86.80;;;;;;5052882;28;20227;-76
2022/09/05 01:07:48;;;;;;;3.45;3.35;;;18.70;87.50;;;;;;5052078;28;20248;-75
2022/09/05 01:10:40;;;;;;;3.65;3.50;;;18.70;87.40;;;;;;5054182;28;20198;-75
2022/09/05 01:13:33;;;;;;;3.60;3.40;;;18.70;87.90;;;;;;5035910;28;20195;-75
2022/09/05 01:16:12;;;;;;;3.63;3.53;;;18.70;88.40;;;;;;5012434;28;20805;-75
2022/09/05 01:18:43;;;;;;;3.30;3.20;;;18.70;88.30;;;;;;5031076;28;20191;-75
2022/09/05 01:21:30;;;;;;;3.22;3.13;;;18.60;89.10;;;;;;5027161;28;20191;-75
2022/09/05 01:24:14;;;;;;;3.63;3.50;;;18.60;88.40;;;;;;5030801;28;20227;-75
2022/09/05 01:26:58;;;;;;;3.47;3.35;;;18.60;88.30;;;;;;5035206;28;20188;-74
2022/09/05 01:29:23;;;;;;;3.90;3.72;;;18.60;88.50;;;;;;5029706;28;20183;-75
2022/09/05 01:32:14;;;;;;;2.90;2.80;;;18.50;88.80;;;;;;5031932;28;20203;-75
2022/09/05 01:35:16;;;;;;;3.67;3.47;;;18.50;88.50;;;;;;5032752;28;20246;-75
2022/09/05 01:38:06;;;;;;;3.50;3.20;;;18.50;88.50;;;;;;5028467;28;20198;-74
2022/09/05 01:40:45;;;;;;;3.22;2.95;;;18.50;88.60;;;;;;5031247;28;20206;-75
2022/09/05 01:43:19;;;;;;;3.45;3.35;;;18.40;88.60;;;;;;5031554;28;20188;-76
2022/09/05 01:46:04;;;;;;;3.15;2.97;;;18.40;89.10;;;;;;5033994;28;20201;-74
2022/09/05 01:48:59;;;;;;;2.90;2.80;;;18.40;88.60;;;;;;5028514;28;20188;-74
2022/09/05 01:51:48;;;;;;;3.20;3.10;;;18.40;89.10;;;;;;5052566;28;20187;-74
2022/09/05 01:54:35;;;;;;;2.88;2.78;;;18.40;88.50;;;;;;5052461;28;20189;-76
2022/09/05 01:57:14;;;;;;;2.75;2.70;;;18.40;89.40;;;;;;5051566;28;20183;-76
2022/09/05 02:00:11;;;;;;;3.30;3.20;;;18.30;88.30;;;;;;5047750;28;20180;-77
2022/09/05 02:03:14;;;;;;;3.10;3.00;;;18.20;87.90;;;;;;5051078;28;20272;-74
2022/09/05 02:06:01;;;;;;;3.03;2.92;;;18.20;88.00;;;;;;5052442;28;20190;-76
2022/09/05 02:08:38;;;;;;;2.70;2.60;;;18.20;88.30;;;;;;5046990;28;20201;-74
2022/09/05 02:11:11;;;;;;;3.00;2.90;;;18.20;88.30;;;;;;5046510;28;20635;-76
2022/09/05 02:13:43;;;;;;;2.53;2.50;;;18.20;88.90;;;;;;5050624;28;20545;-76
2022/09/05 02:16:37;;;;;;;2.90;2.80;;;18.20;88.90;;;;;;5051417;28;20200;-76
2022/09/05 02:19:13;;;;;;;3.05;2.95;;;18.20;88.60;;;;;;5010178;28;20279;-75
2022/09/05 02:21:50;;;;;;;3.22;3.13;;;18.20;87.70;;;;;;5012218;28;20271;-75
2022/09/05 02:24:25;;;;;;;2.45;2.40;;;18.10;88.20;;;;;;5002305;28;20243;-75
2022/09/05 02:26:50;;;;;;;2.33;2.33;;;18.10;88.30;;;;;;5005914;28;20223;-75
2022/09/05 02:29:24;;;;;;;3.00;2.90;;;18.20;88.60;;;;;;5008938;28;20216;-75
2022/09/05 02:31:56;;;;;;;2.53;2.42;;;18.20;88.50;;;;;;5007215;28;20713;-75
2022/09/05 02:34:30;;;;;;;3.25;3.05;;;18.20;88.70;;;;;;5006798;28;20721;-75
2022/09/05 02:37:15;;;;;;;3.28;3.05;;;18.20;88.00;;;;;;5008014;28;20291;-75
2022/09/05 02:39:55;;;;;;;2.85;2.75;;;18.20;88.40;;;;;;5009724;28;20196;-76
2022/09/05 02:42:50;;;;;;;3.05;2.85;;;18.20;88.70;;;;;;5013550;28;20204;-75
2022/09/05 02:45:57;;;;;;;3.03;2.92;;;18.20;88.70;;;;;;5010394;28;20220;-75
2022/09/05 02:48:50;;;;;;;2.88;2.67;;;18.20;87.70;;;;;;5013000;28;20198;-75
2022/09/05 02:51:21;;;;;;;2.38;2.28;;;18.20;88.40;;;;;;5015884;28;20193;-75
2022/09/05 02:53:53;;;;;;;2.42;2.33;;;18.20;88.20;;;;;;5014448;28;20192;-75
2022/09/05 02:56:30;;;;;;;2.00;2.00;;;18.20;88.40;;;;;;5040055;28;20306;-75
2022/09/05 02:58:58;;;;;;;1.98;1.88;;;18.20;88.30;;;;;;5054400;28;20179;-75
2022/09/05 03:01:50;;;;;;;2.83;2.30;;;18.20;88.30;;;;;;5055846;28;20175;-75
2022/09/05 03:04:30;;;;;;;2.22;2.13;;;18.20;87.70;;;;;;5051279;28;20258;-76
2022/09/05 03:07:15;;;;;;;2.35;2.25;;;18.20;88.00;;;;;;5051325;28;20236;-75
2022/09/05 03:10:09;;;;;;;2.00;2.00;;;18.20;88.40;;;;;;5056283;28;20179;-75
2022/09/05 03:13:09;;;;;;;3.00;1.65;;;18.20;88.10;;;;;;5086374;28;20184;-75
2022/09/05 03:15:56;;;;;;;1.77;1.77;;;18.20;88.20;;;;;;5053969;28;20186;-75
2022/09/05 03:18:49;;;;;;;2.30;2.20;;;18.20;87.70;;;;;;5054912;28;20191;-75
2022/09/05 03:21:50;;;;;;;2.60;1.80;;;18.20;87.60;;;;;;5054573;28;20183;-75
2022/09/05 03:24:43;;;;;;;1.80;1.75;;;18.10;87.90;;;;;;4994228;28;20624;-76
2022/09/05 03:27:15;;;;;;;1.48;1.48;;;18.10;87.40;;;;;;4989843;28;20204;-75
2022/09/05 03:30:05;;;;;;;1.58;1.52;;;18.20;87.60;;;;;;4988834;28;20293;-75
2022/09/05 03:33:00;;;;;;;1.80;1.70;;;18.10;87.10;;;;;;4994235;28;20285;-75
2022/09/05 03:35:47;;;;;;;2.00;1.95;;;18.10;87.60;;;;;;4994708;28;20195;-75
2022/09/05 03:38:35;;;;;;;1.65;1.65;;;18.20;87.30;;;;;;4990188;28;20273;-75
2022/09/05 03:41:18;;;;;;;1.58;1.52;;;18.20;87.60;;;;;;4992779;28;20197;-75
2022/09/05 03:44:14;;;;;;;2.08;1.52;;;18.20;87.40;;;;;;4990269;28;20225;-75
2022/09/05 03:46:45;;;;;;;1.58;1.58;;;18.20;87.10;;;;;;4992737;28;20202;-75
2022/09/05 03:49:29;;;;;;;1.50;1.50;;;18.20;87.60;;;;;;4991091;28;20281;-75
2022/09/05 03:52:13;;;;;;;1.60;1.60;;;18.20;86.50;;;;;;4991239;28;20194;-75
2022/09/05 03:54:57;;;;;;;1.92;1.92;;;18.20;86.90;;;;;;4993163;28;20774;-75
2022/09/05 03:57:41;;;;;;;2.03;1.90;;;18.10;86.40;;;;;;4991798;28;20258;-75
2022/09/05 04:00:22;;;;;;;1.98;1.88;;;18.10;87.20;;;;;;5025948;28;20195;-76
2022/09/05 04:02:57;;;;;;;1.60;1.60;;;18.20;87.60;;;;;;5059373;28;20187;-76
2022/09/05 04:05:36;;;;;;;1.90;1.90;;;18.20;86.80;;;;;;5055906;28;21022;-75
2022/09/05 04:08:32;;;;;;;1.45;1.45;;;18.20;87.00;;;;;;5050996;28;20633;-75
2022/09/05 04:11:29;;;;;;;1.80;1.70;;;18.20;87.30;;;;;;5056876;28;20234;-75
2022/09/05 04:14:08;;;;;;;1.30;1.30;;;18.10;86.60;;;;;;5011338;28;21728;-75
2022/09/05 04:16:55;;;;;;;1.77;1.73;;;18.20;86.80;;;;;;5007386;28;20251;-75
2022/09/05 04:19:58;;;;;;;2.08;1.98;;;18.20;86.30;;;;;;5013321;28;20247;-76
2022/09/05 04:22:33;;;;;;;1.58;1.58;;;18.20;88.30;;;;;;4942810;29;20210;-75
2022/09/05 04:25:13;;;;;;;3.80;1.83;;;18.20;87.10;;;;;;4944296;29;20236;-76
2022/09/05 04:27:52;;;;;;;1.85;1.77;;;18.20;86.80;;;;;;4944960;29;20194;-75
2022/09/05 04:30:44;;;;;;;2.17;1.90;;;18.20;86.70;;;;;;4943750;29;20230;-75
2022/09/05 04:33:23;;;;;;;1.90;1.90;;;18.20;86.60;;;;;;4943704;29;20191;-75
2022/09/05 04:36:27;;;;;;;4.95;2.03;;;18.20;86.80;;;;;;4944880;29;20195;-75
2022/09/05 04:39:17;;;;;;;2.38;2.17;;;18.30;86.60;;;;;;4944233;29;20198;-75
2022/09/05 04:41:47;;;;;;;3.60;2.08;;;18.20;86.60;;;;;;4944525;29;20273;-75
2022/09/05 04:44:17;;;;;;;2.70;2.13;;;18.30;86.80;;;;;;4944027;28;20234;-75
2022/09/05 04:46:47;;;;;;;1.92;1.83;;;18.30;87.20;;;;;;4944562;29;20194;-75
2022/09/05 04:49:18;;;;;;;2.92;2.75;;;18.30;87.00;;;;;;4943860;29;20401;-75
2022/09/05 04:52:15;;;;;;;2.38;2.35;;;18.30;87.20;;;;;;4973460;28;20205;-76
2022/09/05 04:54:49;;;;;;;2.78;2.38;;;18.30;86.80;;;;;;4982607;28;20236;-76
2022/09/05 04:57:52;;;;;;;1.95;1.85;;;18.40;87.00;;;;;;5045302;28;20203;-76
2022/09/05 05:00:38;;;;;;;1.95;1.80;;;18.40;86.30;;;;;;5049942;28;20265;-75
2022/09/05 05:03:14;;;;;;;2.83;2.70;;;18.40;86.40;;;;;;5053035;28;20209;-75
2022/09/05 05:05:46;;;;;;;3.05;2.10;;;18.50;86.10;;;;;;5050364;28;20210;-76
2022/09/05 05:08:27;;;;;;;1.75;1.75;;;18.50;86.60;;;;;;5047357;28;20187;-76
2022/09/05 05:10:56;;;;;;;2.13;2.08;;;18.60;86.90;;;;;;5052099;28;20179;-76
2022/09/05 05:13:45;;;;;;;2.22;2.13;;;18.60;86.70;;;;;;5052360;28;20191;-76
2022/09/05 05:16:21;;;;;;;2.08;1.98;;;18.60;86.10;;;;;;5049492;28;20180;-76
2022/09/05 05:18:52;;;;;;;2.17;2.13;;;18.60;86.00;;;;;;5047312;28;20946;-76
2022/09/05 05:21:24;;;;;;;2.33;2.22;;;18.60;85.70;;;;;;5049471;28;20570;-76
2022/09/05 05:24:00;;;;;;;2.53;2.42;;;18.60;85.90;;;;;;5057946;28;20225;-75
2022/09/05 05:26:53;;;;;;;2.38;2.28;;;18.60;85.70;;;;;;5053833;28;20262;-76
2022/09/05 05:29:45;;;;;;;2.47;2.38;;;18.80;85.80;;;;;;5056542;28;20562;-76
2022/09/05 05:32:22;;;;;;;2.13;2.00;;;18.80;86.00;;;;;;5052196;28;20693;-76
2022/09/05 05:34:53;;;;;;;2.08;1.98;;;18.80;85.80;;;;;;5052009;28;20186;-75
2022/09/05 05:37:47;;;;;;;2.63;2.53;;;18.80;86.00;;;;;;5052699;28;20212;-76
2022/09/05 05:40:15;;;;;;;2.40;2.40;;;18.90;85.40;;;;;;5050528;28;20673;-76
2022/09/05 05:42:42;;;;;;;2.83;2.72;;;18.90;86.50;;;;;;5055235;28;20189;-75
2022/09/05 05:45:23;;;;;;;2.80;2.70;;;19.00;86.50;;;;;;5052415;28;20219;-76
2022/09/05 05:47:58;;;;;;;2.63;2.53;;;19.00;86.20;;;;;;5050200;28;20827;-76
2022/09/05 05:50:48;;;;;;;2.38;2.28;;;19.00;86.10;;;;;;5049029;28;20191;-76
2022/09/05 05:53:35;;;;;;;3.33;3.22;;;19.10;86.10;;;;;;5051216;28;20277;-76
2022/09/05 05:56:38;;;;;;;5.25;3.17;;;19.10;85.80;;;;;;5058559;28;20766;-77
2022/09/05 05:59:17;;;;;;;2.47;2.38;;;19.20;85.90;;;;;;5046017;28;20179;-76
2022/09/05 06:02:15;;;;;;;2.65;2.50;;;19.20;85.50;;;;;;5054400;28;20199;-76
2022/09/05 06:05:05;;;;;;;3.13;2.95;;;19.20;86.30;;;;;;5020141;28;20291;-76
2022/09/05 06:08:12;;;;;;;2.72;2.58;;;19.20;85.70;;;;;;5021401;28;20188;-76
2022/09/05 06:10:55;;;;;;;4.40;2.90;;;19.10;84.50;;;;;;4924286;29;20230;-76
2022/09/05 06:13:45;;;;;;;2.95;2.85;;;19.20;85.50;;;;;;4923762;29;20195;-76
2022/09/05 06:16:27;;;;;;;2.83;2.72;;;19.30;84.70;;;;;;4925186;29;20662;-76
2022/09/05 06:19:24;;;;;;;2.88;2.78;;;19.40;84.90;;;;;;4927812;29;20180;-76
2022/09/05 06:22:26;;;;;;;2.35;2.35;;;19.50;84.60;;;;;;4928132;29;20312;-76
2022/09/05 06:25:19;;;;;;;3.08;2.97;;;19.60;84.40;;;;;;4927683;29;20819;-76
2022/09/05 06:28:34;;;;;;;2.85;2.63;;;19.70;84.40;;;;;;4912018;29;20914;-74
2022/09/05 06:31:24;;;;;;;2.65;2.65;;;19.80;83.10;;;;;;4829228;29;20575;-76
2022/09/05 06:34:20;;;;;;;2.53;2.42;;;19.80;83.60;;;;;;4825000;29;20692;-76
2022/09/05 06:37:04;;;;;;;2.90;2.80;;;19.80;83.20;;;;;;4832455;29;20191;-77
2022/09/05 06:39:39;;;;;;;1.95;1.95;;;19.90;83.80;;;;;;4828419;29;20221;-77
2022/09/05 06:42:17;;;;;;;1.88;1.77;;;19.90;83.50;;;;;;4864941;29;20969;-76
2022/09/05 06:44:52;;;;;;;2.28;2.17;;;20.00;82.80;;;;;;4895073;29;20225;-76
2022/09/05 06:47:19;;;;;;;2.35;2.20;;;20.00;83.20;;;;;;4895490;29;20210;-76
2022/09/05 06:50:00;;;;;;;2.00;2.00;;;20.10;83.10;;;;;;4898043;29;20267;-76
2022/09/05 06:52:31;;;;;;;1.85;1.85;;;20.20;82.60;;;;;;4896442;29;20184;-76
2022/09/05 06:55:00;;;;;;;2.67;1.77;;;20.30;83.00;;;;;;4893273;29;20201;-75
2022/09/05 06:57:53;;;;;;;1.88;1.77;;;20.40;83.00;;;;;;4896581;29;20223;-75
2022/09/05 07:00:21;;;;;;;1.67;1.67;;;20.50;82.50;;;;;;4882240;29;20787;-75
2022/09/05 07:02:59;;;;;;;1.58;1.48;;;20.60;82.70;;;;;;4897235;29;20670;-75
2022/09/05 07:05:43;;;;;;;1.27;1.27;;;20.80;81.90;;;;;;4895645;29;20217;-77
2022/09/05 07:08:29;;;;;;;1.50;1.40;;;20.90;81.00;;;;;;5012001;28;20191;-76
2022/09/05 07:11:00;;;;;;;1.45;1.45;;;21.00;81.10;;;;;;5023965;28;20189;-75
2022/09/05 07:13:39;;;;;;;1.88;1.80;;;21.10;80.30;;;;;;5023080;28;20210;-77
2022/09/05 07:16:18;;;;;;;1.88;1.88;;;21.20;80.40;;;;;;5023869;28;20223;-76
2022/09/05 07:18:59;;;;;;;2.42;2.33;;;21.20;80.10;;;;;;5022642;28;20335;-76
2022/09/05 07:21:37;;;;;;;1.98;1.88;;;21.30;79.90;;;;;;5023593;28;20204;-76
2022/09/05 07:24:09;;;;;;;1.50;1.40;;;21.30;79.80;;;;;;5023997;28;20347;-75
2022/09/05 07:26:39;;;;;;;1.38;1.38;;;21.30;79.30;;;;;;5023102;28;20198;-76
2022/09/05 07:29:06;;;;;;;1.60;1.60;;;21.30;79.40;;;;;;5023456;28;20192;-76
2022/09/05 07:31:36;;;;;;;1.80;1.80;;;21.40;78.90;;;;;;5023317;28;20759;-76
2022/09/05 07:34:21;;;;;;;2.38;1.60;;;21.40;78.50;;;;;;5023555;28;20223;-75
2022/09/05 07:36:52;;;;;;;1.80;1.80;;;21.50;77.70;;;;;;5023803;28;20274;-76
2022/09/05 07:39:32;;;;;;;1.60;1.60;;;21.50;78.60;;;;;;5024055;28;20184;-76
2022/09/05 07:42:04;;;;;;;1.67;1.58;;;21.60;77.40;;;;;;5024230;28;20196;-76
2022/09/05 07:44:37;;;;;;;1.58;1.58;;;21.60;76.60;;;;;;5008036;28;20215;-76
2022/09/05 07:47:16;;;;;;;1.38;1.38;;;21.60;76.70;;;;;;5025216;28;20222;-76
2022/09/05 07:49:45;;;;;;;1.65;1.60;;;21.50;77.20;;;;;;5056360;28;20211;-76
2022/09/05 07:52:20;;;;;;;1.52;1.52;;;21.50;77.80;;;;;;5054090;28;20179;-77
2022/09/05 07:54:50;;;;;;;1.67;1.63;;;21.50;76.90;;;;;;5054905;28;20174;-75
2022/09/05 07:57:44;;;;;;;1.35;1.35;;;21.60;77.10;;;;;;5056244;28;20249;-76
2022/09/05 08:00:20;;;;;;;1.83;1.63;;;21.60;77.60;;;;;;5054947;28;20210;-76
2022/09/05 08:02:46;;;;;;;2.38;2.15;;;21.60;77.20;;;;;;5053815;28;20258;-77
2022/09/05 08:05:21;;;;;;;6.32;2.53;;;21.60;77.90;;;;;;5056985;28;20723;-77
2022/09/05 08:08:00;;;;;;;2.25;1.70;;;21.70;77.40;;;;;;5053677;28;20183;-77
2022/09/05 08:10:32;;;;;;;1.58;1.58;;;21.80;77.00;;;;;;5055544;28;20899;-77
2022/09/05 08:13:07;;;;;;;1.42;1.42;;;21.90;77.30;;;;;;5057139;28;20179;-77
2022/09/05 08:15:36;;;;;;;3.05;1.42;;;21.90;75.80;;;;;;5056263;28;20274;-78
2022/09/05 08:18:23;;;;;;;1.88;1.85;;;22.00;76.40;;;;;;5051867;28;20258;-77
2022/09/05 08:21:04;;;;;;;1.20;1.20;;;22.10;76.60;;;;;;5055340;28;20276;-77
2022/09/05 08:23:51;;;;;;;1.45;1.35;;;22.20;76.30;;;;;;5056626;28;20244;-77
2022/09/05 08:26:45;;;;;;;1.30;1.30;;;22.30;75.60;;;;;;5059296;28;20699;-77
2022/09/05 08:29:30;;;;;;;1.85;1.50;;;22.40;74.70;;;;;;5053936;28;20190;-77
2022/09/05 08:32:02;;;;;;;1.42;1.42;;;22.40;74.90;;;;;;5052992;28;20211;-78
2022/09/05 08:34:53;;;;;;;1.58;1.58;;;22.50;74.60;;;;;;5054718;28;20180;-77
2022/09/05 08:37:21;;;;;;;1.48;1.48;;;22.70;74.60;;;;;;5022793;28;20957;-77
2022/09/05 08:39:52;;;;;;;2.33;1.92;;;22.90;72.60;;;;;;5022079;28;20678;-77
2022/09/05 08:42:36;;;;;;;1.20;1.20;;;23.00;72.30;;;;;;5022458;28;20641;-77
2022/09/05 08:45:04;;;;;;;1.40;1.40;;;23.20;71.60;;;;;;5021984;28;20304;-77
2022/09/05 08:48:06;;;;;;;2.30;1.40;;;23.40;71.90;;;;;;5022167;28;20214;-77
2022/09/05 08:50:56;;;;;;;1.15;1.15;;;23.80;71.50;;;;;;5022415;28;20188;-77
2022/09/05 08:53:59;;;;;;;1.15;1.15;;;24.10;68.00;;;;;;5022239;28;20906;-77
2022/09/05 08:56:37;;;;;;;1.42;1.42;;;24.50;67.80;;;;;;5022310;28;20313;-77
2022/09/05 08:59:32;;;;;;;1.40;1.25;;;25.00;67.70;;;;;;5022639;28;20756;-77
2022/09/05 09:02:20;;;;;;;1.65;0.90;;;25.70;67.30;;;;;;5022449;28;20793;-77
2022/09/05 09:05:29;;;;;;;1.10;1.10;;;26.50;65.60;;;;;;5021621;28;20220;-76
2022/09/05 09:08:03;;;;;;;1.70;1.70;;;27.50;63.40;;;;;;5020787;28;20193;-75
2022/09/05 09:10:41;;;;;;;1.40;1.40;;;28.40;63.50;;;;;;5019767;28;20231;-76
2022/09/05 09:13:25;;;;;;;1.13;1.13;;;29.20;62.60;;;;;;5021952;28;20222;-76
2022/09/05 09:16:03;;;;;;;1.30;1.30;;;29.70;59.20;;;;;;5054689;28;20290;-76
2022/09/05 09:19:01;;;;;;;1.10;1.10;;;29.80;59.60;;;;;;5052543;28;20271;-76
2022/09/05 09:21:38;;;;;;;1.45;1.45;;;30.10;58.40;;;;;;5051729;28;20298;-76
2022/09/05 09:24:37;;;;;;;1.38;1.27;;;30.30;59.60;;;;;;5055368;28;20301;-78
2022/09/05 09:27:18;;;;;;;1.20;1.20;;;30.70;58.80;;;;;;5054085;28;20229;-77
2022/09/05 09:29:44;;;;;;;1.20;1.20;;;31.20;59.50;;;;;;5049075;28;20244;-76
2022/09/05 09:32:13;;;;;;;1.15;1.15;;;31.70;59.40;;;;;;5048418;28;20186;-76
2022/09/05 09:34:54;;;;;;;1.15;1.15;;;32.20;54.30;;;;;;5050156;28;20702;-76
2022/09/05 09:37:50;;;;;;;1.23;1.23;;;32.80;57.90;;;;;;5052127;28;20271;-77
2022/09/05 09:40:29;;;;;;;1.40;1.40;;;33.60;54.50;;;;;;5051062;28;20587;-77
2022/09/05 09:43:08;;;;;;;1.08;1.08;;;33.70;54.30;;;;;;5047092;28;20191;-76
2022/09/05 09:45:56;;;;;;;1.20;1.20;;;33.80;54.20;;;;;;5050090;28;20711;-77
2022/09/05 09:48:56;;;;;;;0.90;0.90;;;34.00;55.40;;;;;;5047321;28;20625;-76
2022/09/05 09:51:34;;;;;;;1.05;1.05;;;34.30;53.20;;;;;;5055435;28;20201;-76
2022/09/05 09:54:18;;;;;;;3.58;1.15;;;34.60;55.70;;;;;;5057645;28;20530;-76
2022/09/05 09:57:05;;;;;;;0.90;0.90;;;34.80;50.50;;;;;;5052793;28;20206;-76
2022/09/05 09:59:52;;;;;;;0.88;0.88;;;35.20;54.50;;;;;;5055669;28;20194;-77
2022/09/05 10:02:24;;;;;;;0.82;0.82;;;35.70;51.40;;;;;;5051043;28;20179;-77
2022/09/05 10:04:55;;;;;;;1.13;1.08;;;36.10;53.20;;;;;;5053025;28;20622;-76
2022/09/05 10:07:51;;;;;;;0.90;0.90;;;36.30;53.80;;;;;;5055252;28;20281;-76
2022/09/05 10:10:38;;;;;;;1.02;1.02;;;36.70;52.20;;;;;;5056428;28;20252;-77
2022/09/05 10:13:24;;;;;;;1.00;1.00;;;37.20;53.90;;;;;;5057220;28;20784;-76
2022/09/05 10:16:22;;;;;;;1.05;1.05;;;37.80;47.10;;;;;;5053983;28;20179;-77
2022/09/05 10:19:06;;;;;;;1.05;1.05;;;38.10;47.40;;;;;;5057576;28;20187;-76
2022/09/05 10:21:37;;;;;;;1.00;1.00;;;38.40;46.90;;;;;;5053505;28;20186;-76
2022/09/05 10:24:28;;;;;;;0.90;0.90;;;38.50;50.90;;;;;;5059249;28;20207;-76
2022/09/05 10:27:26;;;;;;;0.85;0.85;;;38.70;45.90;;;;;;5058572;28;20183;-76
2022/09/05 10:30:01;;;;;;;0.88;0.88;;;38.70;46.40;;;;;;5054225;28;20893;-76
2022/09/05 10:32:45;;;;;;;0.80;0.80;;;38.70;47.00;;;;;;5054052;28;20193;-76
2022/09/05 10:35:24;;;;;;;0.85;0.82;;;38.70;49.50;;;;;;5054949;28;20206;-76
2022/09/05 10:38:07;;;;;;;1.00;1.00;;;38.80;50.00;;;;;;5057103;28;20633;-76
2022/09/05 10:40:35;;;;;;;0.80;0.80;;;38.90;45.70;;;;;;5055388;28;20270;-76
2022/09/05 10:43:21;;;;;;;0.93;0.93;;;38.70;48.50;;;;;;5057345;28;20275;-76
2022/09/05 10:45:56;;;;;;;0.80;0.80;;;38.70;49.30;;;;;;5021569;28;20678;-76
2022/09/05 10:48:44;;;;;;;1.13;1.13;;;38.90;50.00;;;;;;5020790;28;20444;-76
2022/09/05 10:51:28;;;;;;;1.10;1.10;;;39.30;51.20;;;;;;5022846;28;20210;-76
2022/09/05 10:54:12;;;;;;;1.08;1.08;;;39.80;47.50;;;;;;5004552;28;20195;-76
2022/09/05 10:56:55;;;;;;;1.20;1.20;;;39.90;44.40;;;;;;5020573;28;20238;-76
2022/09/05 10:59:30;;;;;;;1.15;1.15;;;39.40;44.40;;;;;;5020980;28;20184;-77
2022/09/05 11:02:06;;;;;;;1.30;1.30;;;38.80;46.50;;;;;;5018834;28;20714;-77
2022/09/05 11:04:53;;;;;;;1.05;1.05;;;38.10;45.30;;;;;;5021078;28;20223;-77
2022/09/05 11:07:42;;;;;;;1.77;1.38;;;37.10;47.70;;;;;;5021961;28;20627;-77
2022/09/05 11:10:19;;;;;;;1.67;1.25;;;36.40;50.00;;;;;;4941118;28;20201;-77
2022/09/05 11:13:15;;;;;;;1.38;1.38;;;35.50;48.20;;;;;;4960833;28;20198;-77
2022/09/05 11:16:06;;;;;;;1.13;1.05;;;34.60;47.70;;;;;;4957016;28;21066;-77
2022/09/05 11:18:37;;;;;;;1.25;0.80;;;33.90;49.00;;;;;;4959064;28;20312;-76
2022/09/05 11:21:11;;;;;;;1.15;1.15;;;33.50;52.80;;;;;;4957623;28;20196;-76
2022/09/05 11:23:43;;;;;;;2.30;1.10;;;33.10;53.10;;;;;;5001034;28;20670;-77
2022/09/05 11:26:42;;;;;;;1.38;1.33;;;32.60;51.50;;;;;;5010502;28;20630;-76
2022/09/05 11:29:13;;;;;;;1.25;1.15;;;32.10;51.70;;;;;;4983747;28;20203;-77
2022/09/05 11:31:52;;;;;;;1.27;1.20;;;32.40;53.40;;;;;;4982532;28;20224;-76
2022/09/05 11:34:27;;;;;;;1.50;0.80;;;32.80;53.50;;;;;;4981883;28;20197;-76
2022/09/05 11:36:56;;;;;;;0.90;0.90;;;33.40;51.60;;;;;;4982913;28;20192;-76
2022/09/05 11:40:00;;;;;;;0.85;0.85;;;34.00;52.90;;;;;;4983546;28;20193;-76
2022/09/05 11:42:59;;;;;;;3.60;0.85;;;34.70;48.90;;;;;;4983448;28;20193;-76
2022/09/05 11:45:56;;;;;;;0.95;0.95;;;35.10;48.50;;;;;;4943768;28;1155431;-76
2022/09/05 11:48:56;;;;;;;1.92;1.05;;;35.00;47.70;;;;;;5039076;28;20196;-76
2022/09/05 11:52:04;;;;;;;1.20;1.20;;;34.70;47.90;;;;;;5039997;28;20187;-76
2022/09/05 11:55:07;;;;;;;1.95;0.90;;;34.00;49.40;;;;;;5040612;28;20289;-76
2022/09/05 11:57:48;;;;;;;1.00;1.00;;;33.90;50.30;;;;;;5041068;28;20178;-75
2022/09/05 12:00:24;;;;;;;0.95;0.95;;;33.70;50.90;;;;;;5043146;28;20207;-75
2022/09/05 12:03:12;;;;;;;0.82;0.82;;;33.50;50.30;;;;;;5042714;28;20187;-75
2022/09/05 12:06:12;;;;;;;0.95;0.70;;;33.50;50.70;;;;;;5046981;28;20226;-75
2022/09/05 12:09:14;;;;;;;1.00;1.00;;;33.80;51.20;;;;;;5053249;28;20183;-75
2022/09/05 12:12:01;;;;;;;1.30;1.30;;;34.20;50.00;;;;;;5057322;28;20185;-75
2022/09/05 12:14:41;;;;;;;1.25;1.20;;;34.90;50.10;;;;;;5053720;28;20190;-75
2022/09/05 12:17:28;;;;;;;0.93;0.93;;;35.50;49.80;;;;;;5053296;28;20339;-75
2022/09/05 12:20:23;;;;;;;1.00;1.00;;;36.20;47.20;;;;;;5059254;28;20187;-75
2022/09/05 12:23:04;;;;;;;1.00;1.00;;;36.80;46.50;;;;;;4987639;28;20797;-76
2022/09/05 12:25:47;;;;;;;1.13;1.13;;;37.30;48.50;;;;;;5002134;28;20223;-75
2022/09/05 12:28:24;;;;;;;3.22;3.13;;;37.80;44.80;;;;;;5002933;28;20196;-76
2022/09/05 12:30:52;;;;;;;1.30;1.30;;;37.70;46.00;;;;;;5002122;28;20203;-76
2022/09/05 12:33:30;;;;;;;1.00;1.00;;;37.40;46.40;;;;;;5002826;28;20203;-75
2022/09/05 12:35:58;;;;;;;1.20;1.20;;;37.40;46.80;;;;;;5003117;28;20766;-75
2022/09/05 12:38:41;;;;;;;0.98;0.98;;;37.20;45.90;;;;;;4986176;28;20271;-75
2022/09/05 12:41:32;;;;;;;3.40;1.00;;;37.10;46.60;;;;;;5001487;28;20189;-76
2022/09/05 12:44:01;;;;;;;1.00;1.00;;;37.20;48.30;;;;;;5002450;28;20196;-76
2022/09/05 12:47:12;;;;;;;2.05;1.05;;;37.30;45.90;;;;;;5001954;28;20185;-76
2022/09/05 12:49:57;;;;;;;0.95;0.95;;;37.50;45.50;;;;;;4963630;28;20198;-75
2022/09/05 12:52:31;;;;;;;0.98;0.98;;;37.70;46.80;;;;;;4964066;28;20673;-76
2022/09/05 12:55:21;;;;;;;1.10;1.10;;;38.10;46.30;;;;;;4963470;28;20201;-76
2022/09/05 12:57:50;;;;;;;1.10;1.05;;;38.00;45.50;;;;;;4963282;28;20250;-76
2022/09/05 13:00:20;;;;;;;1.08;1.08;;;38.10;45.50;;;;;;5006212;28;20191;-76
2022/09/05 13:02:58;;;;;;;1.20;1.20;;;38.40;46.40;;;;;;5032735;28;20195;-76
2022/09/05 13:05:46;;;;;;;1.25;1.08;;;38.60;45.40;;;;;;5025066;28;20334;-76
2022/09/05 13:08:19;;;;;;;1.20;1.20;;;38.80;43.60;;;;;;5031017;28;20191;-76
2022/09/05 13:10:49;;;;;;;0.85;0.85;;;38.70;43.50;;;;;;5031759;28;20730;-76
2022/09/05 13:13:33;;;;;;;0.90;0.90;;;38.80;44.90;;;;;;5024361;28;20188;-76
2022/09/05 13:16:02;;;;;;;1.08;1.08;;;38.80;43.90;;;;;;5029361;28;20213;-76
2022/09/05 13:18:37;;;;;;;1.85;0.80;;;38.80;44.40;;;;;;5015187;28;20179;-76
2022/09/05 13:21:18;;;;;;;1.20;1.20;;;39.00;44.20;;;;;;5029097;28;20183;-76
2022/09/05 13:23:54;;;;;;;0.90;0.90;;;39.00;43.40;;;;;;5031313;28;20191;-76
2022/09/05 13:26:38;;;;;;;1.27;1.17;;;38.70;43.40;;;;;;5039689;28;20644;-76
2022/09/05 13:29:50;;;;;;;1.13;1.00;;;38.70;43.30;;;;;;5054279;28;20186;-76
2022/09/05 13:32:32;;;;;;;1.00;1.00;;;38.70;42.90;;;;;;5022100;28;20187;-76
2022/09/05 13:35:20;;;;;;;1.48;1.17;;;39.00;43.70;;;;;;5022080;28;20241;-76
2022/09/05 13:38:14;;;;;;;0.80;0.80;;;39.00;42.90;;;;;;5021898;28;20187;-75
2022/09/05 13:40:45;;;;;;;2.65;1.23;;;39.00;42.50;;;;;;5022072;28;20208;-75
2022/09/05 13:43:14;;;;;;;1.00;1.00;;;39.00;43.20;;;;;;5021733;28;20231;-75
2022/09/05 13:46:02;;;;;;;0.98;0.98;;;39.00;43.60;;;;;;5021182;28;20767;-75
2022/09/05 13:48:52;;;;;;;0.80;0.80;;;38.50;43.00;;;;;;5020582;28;20190;-75
2022/09/05 13:51:36;;;;;;;0.95;0.95;;;38.00;43.90;;;;;;5021193;28;20256;-75
2022/09/05 13:54:17;;;;;;;1.10;1.10;;;37.50;44.70;;;;;;5022192;28;20193;-75
2022/09/05 13:57:24;;;;;;;0.88;0.88;;;37.00;45.60;;;;;;5021443;28;20717;-76
2022/09/05 14:03:02;;;;;;;1.08;1.08;;;35.90;45.70;;;;;;4973599;28;20196;-77
2022/09/05 14:05:46;;;;;;;1.15;1.15;;;35.70;46.50;;;;;;4973801;28;20221;-76
2022/09/05 14:08:52;;;;;;;1.30;1.30;;;35.70;46.80;;;;;;4973865;28;20263;-77
2022/09/05 14:11:20;;;;;;;1.20;1.20;;;35.70;45.90;;;;;;4978305;28;20681;-77